Molt, Montana
Current Conditions -  °F | °C
As of 3:53 AM on Saturday 20 Dec 2014 (Local Time) from KBIL Reporting Station
Broken Clouds Broken Clouds  
Wind Chill: 24°   Ceiling: 9500
Heat Index: 33°   Visibility: 10mi
Dew Point: 21°   Wind: 12mph
Humidity: 61%   Direction: 230°SW
Pressure: 29.91"   Gusts: NA
Location:  45.86°N, 108.93°W
Report Text: KBIL 201053Z 23010KT 10SM BKN095 01/M06 A2991 RMK AO2 SLP149 T00061061
Loading
Personal Weather Stations






























Interactive Weather Map New forecast layout! Learn more

10-Day Weather Forecast

Advertisements
Track Severe Weather on mobile